createdAt,value
2022-11-08T00:00:14.538Z,16.31
2022-11-08T00:02:41.293Z,16.28
2022-11-08T00:05:28.022Z,16.25
2022-11-08T00:08:13.032Z,16.22
2022-11-08T00:10:58.230Z,16.20
2022-11-08T00:13:43.460Z,16.19
2022-11-08T00:16:13.521Z,16.16
2022-11-08T00:18:40.117Z,16.15
2022-11-08T00:21:06.869Z,16.13
2022-11-08T00:23:33.492Z,16.09
2022-11-08T00:26:00.146Z,16.08
2022-11-08T00:28:26.757Z,16.09
2022-11-08T00:30:53.362Z,16.07
2022-11-08T00:33:20.024Z,16.05
2022-11-08T00:35:47.699Z,16.01
2022-11-08T00:38:14.432Z,15.98
2022-11-08T00:40:41.204Z,15.96
2022-11-08T00:43:07.795Z,15.96
2022-11-08T00:45:35.986Z,15.95
2022-11-08T00:48:02.560Z,15.92
2022-11-08T00:50:29.234Z,15.89
2022-11-08T00:52:55.826Z,15.87
2022-11-08T00:55:25.523Z,15.85
2022-11-08T00:57:59.774Z,15.85
2022-11-08T01:00:27.459Z,15.81
2022-11-08T01:03:14.100Z,15.77
2022-11-08T01:05:42.585Z,15.75
2022-11-08T01:08:11.382Z,15.73
2022-11-08T01:10:41.298Z,15.69
2022-11-08T01:13:07.834Z,15.69
2022-11-08T01:15:40.609Z,15.68
2022-11-08T01:18:08.793Z,15.66
2022-11-08T01:20:42.922Z,15.65
2022-11-08T01:23:11.020Z,15.65
2022-11-08T01:25:42.420Z,15.65
2022-11-08T01:28:09.639Z,15.67
2022-11-08T01:30:38.982Z,15.68
2022-11-08T01:33:06.809Z,15.68
2022-11-08T01:35:35.173Z,15.66
2022-11-08T01:38:02.665Z,15.65
2022-11-08T01:40:30.536Z,15.65
2022-11-08T01:42:57.460Z,15.62
2022-11-08T01:46:02.773Z,15.61
2022-11-08T01:48:29.372Z,15.61
2022-11-08T01:50:58.425Z,15.61
2022-11-08T01:53:27.920Z,15.61
2022-11-08T01:55:55.203Z,15.59
2022-11-08T01:58:27.165Z,15.59
2022-11-08T02:00:57.412Z,15.60
2022-11-08T02:03:23.947Z,15.61
2022-11-08T02:05:50.870Z,15.60
2022-11-08T02:08:29.123Z,15.60
2022-11-08T02:10:55.849Z,15.60
2022-11-08T02:13:25.352Z,15.59
2022-11-08T02:15:51.971Z,15.56
2022-11-08T02:18:21.714Z,15.54
2022-11-08T02:21:06.125Z,15.52
2022-11-08T02:23:49.736Z,15.51
2022-11-08T02:26:19.054Z,15.53
2022-11-08T02:28:48.284Z,15.52
2022-11-08T02:31:17.447Z,15.52
2022-11-08T02:33:45.012Z,15.52
2022-11-08T02:36:17.741Z,15.52
2022-11-08T02:38:47.908Z,15.52
2022-11-08T02:41:14.490Z,15.53
2022-11-08T02:43:41.174Z,15.52
2022-11-08T02:46:08.479Z,15.53
2022-11-08T02:48:34.970Z,15.53
2022-11-08T02:51:01.508Z,15.55
2022-11-08T02:53:27.980Z,15.55
2022-11-08T02:55:55.299Z,15.55
2022-11-08T02:58:21.925Z,15.53
2022-11-08T03:00:48.393Z,15.52
2022-11-08T03:03:14.927Z,15.50
2022-11-08T03:05:43.377Z,15.49
2022-11-08T03:08:09.945Z,15.48
2022-11-08T03:10:36.485Z,15.48
2022-11-08T03:13:04.818Z,15.49
2022-11-08T03:15:31.528Z,15.50
2022-11-08T03:17:59.968Z,15.51
2022-11-08T03:20:32.166Z,15.53
2022-11-08T03:23:01.680Z,15.54
2022-11-08T03:25:31.477Z,15.53
2022-11-08T03:28:02.862Z,15.52
2022-11-08T03:30:29.498Z,15.53
2022-11-08T03:32:56.011Z,15.50
2022-11-08T03:35:22.612Z,15.49
2022-11-08T03:37:50.541Z,15.46
2022-11-08T03:40:17.724Z,15.45
2022-11-08T03:42:44.661Z,15.42
2022-11-08T03:45:11.811Z,15.39
2022-11-08T03:47:39.674Z,15.37
2022-11-08T03:50:07.506Z,15.33
2022-11-08T03:52:41.891Z,15.29
2022-11-08T03:55:10.709Z,15.24
2022-11-08T03:57:38.184Z,15.21
2022-11-08T04:00:06.420Z,15.19
2022-11-08T04:02:38.145Z,15.17
2022-11-08T04:05:10.518Z,15.14
2022-11-08T04:07:37.191Z,15.12
2022-11-08T04:10:08.702Z,15.10
2022-11-08T04:12:57.188Z,15.08
2022-11-08T04:15:29.077Z,15.05
2022-11-08T04:18:14.711Z,15.00
2022-11-08T04:21:02.126Z,14.96
2022-11-08T04:23:30.577Z,14.92
2022-11-08T04:26:02.627Z,14.90
2022-11-08T04:28:31.411Z,14.89
2022-11-08T04:31:01.123Z,14.87
2022-11-08T04:33:27.605Z,14.86
2022-11-08T04:35:54.497Z,14.85
2022-11-08T04:38:21.689Z,14.83
2022-11-08T04:40:48.419Z,14.82
2022-11-08T04:43:15.129Z,14.81
2022-11-08T04:45:41.661Z,14.82
2022-11-08T04:48:08.471Z,14.81
2022-11-08T04:50:35.071Z,14.81
2022-11-08T04:53:01.603Z,14.80
2022-11-08T04:55:32.476Z,14.79
2022-11-08T04:57:59.376Z,14.79
2022-11-08T05:00:26.778Z,14.77
2022-11-08T05:02:53.915Z,14.79
2022-11-08T05:05:24.450Z,14.77
2022-11-08T05:07:51.185Z,14.77
2022-11-08T05:10:17.916Z,14.79
2022-11-08T05:12:44.419Z,14.78
2022-11-08T05:15:11.218Z,14.78
2022-11-08T05:17:38.191Z,14.77
2022-11-08T05:20:24.477Z,14.78
2022-11-08T05:23:09.481Z,14.79
2022-11-08T05:25:39.516Z,14.80
2022-11-08T05:28:06.205Z,14.80
2022-11-08T05:30:32.775Z,14.80
2022-11-08T05:32:59.271Z,14.81
2022-11-08T05:35:26.196Z,14.81
2022-11-08T05:37:52.660Z,14.82
2022-11-08T05:40:19.167Z,14.82
2022-11-08T05:42:45.658Z,14.83
2022-11-08T05:45:15.082Z,14.83
2022-11-08T05:47:45.164Z,14.85
2022-11-08T05:50:16.789Z,14.85
2022-11-08T05:52:45.922Z,14.84
2022-11-08T05:55:16.412Z,14.86
2022-11-08T05:57:43.728Z,14.86
2022-11-08T06:00:12.025Z,14.84
2022-11-08T06:02:39.301Z,14.83
2022-11-08T06:05:08.538Z,14.82
2022-11-08T06:07:36.619Z,14.80
2022-11-08T06:10:05.022Z,14.80
2022-11-08T06:12:31.568Z,14.78
2022-11-08T06:14:58.347Z,14.78
2022-11-08T06:17:27.714Z,14.80
2022-11-08T06:19:55.685Z,14.82
2022-11-08T06:22:22.181Z,14.81
2022-11-08T06:24:52.818Z,14.80
2022-11-08T06:27:19.298Z,14.80
2022-11-08T06:29:45.823Z,14.79
2022-11-08T06:32:12.321Z,14.77
2022-11-08T06:34:45.954Z,14.78
2022-11-08T06:37:13.512Z,14.79
2022-11-08T06:39:40.829Z,14.79
2022-11-08T06:42:07.318Z,14.80
2022-11-08T06:44:38.053Z,14.83
2022-11-08T06:47:04.589Z,14.84
2022-11-08T06:49:31.068Z,14.86
2022-11-08T06:51:57.531Z,14.86
2022-11-08T06:54:26.867Z,14.85
2022-11-08T06:56:55.797Z,14.86
2022-11-08T06:59:23.180Z,14.88
2022-11-08T07:01:49.865Z,14.88
2022-11-08T07:04:18.238Z,14.91
2022-11-08T07:06:44.735Z,14.92
2022-11-08T07:09:11.300Z,14.96
2022-11-08T07:11:37.900Z,14.98
2022-11-08T07:14:04.442Z,14.98
2022-11-08T07:16:32.425Z,14.99
2022-11-08T07:18:58.888Z,15.01
2022-11-08T07:21:25.475Z,15.02
2022-11-08T07:23:52.144Z,15.03
2022-11-08T07:26:18.699Z,15.03
2022-11-08T07:28:45.222Z,15.05
2022-11-08T07:31:12.501Z,15.05
2022-11-08T07:33:39.109Z,15.04
2022-11-08T07:36:06.483Z,15.05
2022-11-08T07:38:32.988Z,15.06
2022-11-08T07:41:00.853Z,15.05
2022-11-08T07:43:28.920Z,15.08
2022-11-08T07:46:03.741Z,15.10
2022-11-08T07:48:30.728Z,15.12
2022-11-08T07:50:57.260Z,15.14
2022-11-08T07:53:23.796Z,15.19
2022-11-08T07:55:51.432Z,15.23
2022-11-08T07:58:17.971Z,15.26
2022-11-08T08:00:45.288Z,15.32
2022-11-08T08:03:13.651Z,15.38
2022-11-08T08:05:45.902Z,15.41
2022-11-08T08:08:13.441Z,15.45
2022-11-08T08:10:40.826Z,15.48
2022-11-08T08:13:07.387Z,15.52
2022-11-08T08:15:35.729Z,15.55
2022-11-08T08:18:05.061Z,15.56
2022-11-08T08:20:32.622Z,15.61
2022-11-08T08:23:00.184Z,15.65
2022-11-08T08:25:30.919Z,15.69
2022-11-08T08:28:00.729Z,15.73
2022-11-08T08:30:28.573Z,15.76
2022-11-08T08:33:26.813Z,15.81
2022-11-08T08:35:55.176Z,15.87
2022-11-08T08:38:21.877Z,15.92
2022-11-08T08:40:48.410Z,15.97
2022-11-08T08:43:15.033Z,16.01
2022-11-08T08:45:41.896Z,16.04
2022-11-08T08:48:08.434Z,16.08
2022-11-08T08:50:35.039Z,16.12
2022-11-08T08:53:03.673Z,16.16
2022-11-08T08:55:30.777Z,16.20
2022-11-08T08:57:57.692Z,16.25
2022-11-08T09:03:11.668Z,16.40
2022-11-08T09:05:43.947Z,16.47
2022-11-08T09:08:11.279Z,16.51
2022-11-08T09:10:38.067Z,16.55
2022-11-08T09:13:05.239Z,16.60
2022-11-08T09:15:36.155Z,16.62
2022-11-08T09:18:03.272Z,16.64
2022-11-08T09:20:29.931Z,16.65
2022-11-08T09:23:01.386Z,16.66
2022-11-08T09:25:32.113Z,16.69
2022-11-08T09:27:58.781Z,16.70
2022-11-08T09:30:26.347Z,16.72
2022-11-08T09:33:03.201Z,16.74
2022-11-08T09:35:30.339Z,16.78
2022-11-08T09:37:57.907Z,16.83
2022-11-08T09:40:29.358Z,16.88
2022-11-08T09:43:34.452Z,16.90
2022-11-08T09:46:01.000Z,16.96
2022-11-08T09:48:35.893Z,16.99
2022-11-08T09:51:22.917Z,17.03
2022-11-08T09:53:53.739Z,17.07
2022-11-08T09:56:35.766Z,17.09
2022-11-08T09:59:13.551Z,17.11
2022-11-08T10:01:40.883Z,17.15
2022-11-08T10:04:32.326Z,17.16
2022-11-08T10:07:11.939Z,17.24
2022-11-08T10:10:01.083Z,17.31
2022-11-08T10:12:44.848Z,17.40
2022-11-08T10:15:45.163Z,17.45
2022-11-08T10:18:33.072Z,17.55
2022-11-08T10:21:10.940Z,17.64
2022-11-08T10:23:45.314Z,17.73
2022-11-08T10:26:18.792Z,17.85
2022-11-08T10:28:56.375Z,18.01
2022-11-08T10:31:22.839Z,18.15
2022-11-08T10:33:54.766Z,18.29
2022-11-08T10:36:27.636Z,18.42
2022-11-08T10:39:09.106Z,18.49
2022-11-08T10:41:45.056Z,18.55
2022-11-08T10:44:29.465Z,18.58
2022-11-08T10:46:55.852Z,18.62
2022-11-08T10:49:30.604Z,18.66
2022-11-08T10:52:02.162Z,18.71
2022-11-08T10:54:48.891Z,18.74
2022-11-08T10:57:32.340Z,18.76
2022-11-08T11:00:20.091Z,18.77
2022-11-08T11:02:51.624Z,18.78
2022-11-08T11:05:36.512Z,18.75
2022-11-08T11:08:07.388Z,18.76
2022-11-08T11:10:36.742Z,18.77
2022-11-08T11:13:17.992Z,18.77
2022-11-08T11:15:50.871Z,18.77
2022-11-08T11:18:37.105Z,18.76
2022-11-08T11:21:13.941Z,18.78
2022-11-08T11:23:55.213Z,18.77
2022-11-08T11:26:35.313Z,18.79
2022-11-08T11:29:05.934Z,18.80
2022-11-08T11:31:33.545Z,18.81
2022-11-08T11:34:34.074Z,18.80
2022-11-08T11:37:14.856Z,18.81
2022-11-08T11:40:12.912Z,18.82
2022-11-08T11:42:54.548Z,18.88
2022-11-08T11:45:58.250Z,18.91
2022-11-08T11:48:28.842Z,18.98
2022-11-08T11:50:56.476Z,19.02
2022-11-08T11:53:27.115Z,19.05
2022-11-08T11:56:15.052Z,19.10
2022-11-08T11:59:05.995Z,19.14
2022-11-08T12:02:03.510Z,19.17
2022-11-08T12:04:55.277Z,19.21
2022-11-08T12:07:21.726Z,19.27
2022-11-08T12:10:16.331Z,19.30
2022-11-08T12:13:13.089Z,19.30
2022-11-08T12:15:58.409Z,19.32
2022-11-08T12:18:44.848Z,19.32
2022-11-08T12:21:48.330Z,19.31
2022-11-08T12:24:30.863Z,19.31
2022-11-08T12:27:12.890Z,19.30
2022-11-08T12:30:01.205Z,19.31
2022-11-08T12:32:49.424Z,19.32
2022-11-08T12:35:23.945Z,19.32
2022-11-08T12:38:24.089Z,19.31
2022-11-08T12:41:02.788Z,19.33
2022-11-08T12:44:04.689Z,19.28
2022-11-08T12:46:40.614Z,19.27
2022-11-08T12:49:21.829Z,19.23
2022-11-08T12:52:07.800Z,19.19
2022-11-08T12:54:53.579Z,19.17
2022-11-08T12:57:27.683Z,19.15
2022-11-08T13:00:08.679Z,19.15
2022-11-08T13:02:40.422Z,19.15
2022-11-08T13:05:24.533Z,19.15
2022-11-08T13:08:08.713Z,19.16
2022-11-08T13:10:50.367Z,19.15
2022-11-08T13:13:23.236Z,19.17
2022-11-08T13:16:11.021Z,19.19
2022-11-08T13:18:59.757Z,19.22
2022-11-08T13:21:26.202Z,19.26
2022-11-08T13:24:43.016Z,19.32
2022-11-08T13:27:22.883Z,19.38
2022-11-08T13:29:50.893Z,19.43
2022-11-08T13:32:41.111Z,19.44
2022-11-08T13:35:33.187Z,19.45
2022-11-08T13:38:06.072Z,19.47
2022-11-08T13:40:56.176Z,19.47
2022-11-08T13:43:27.605Z,19.45
2022-11-08T13:45:54.704Z,19.43
2022-11-08T13:48:24.669Z,19.45
2022-11-08T13:50:54.405Z,19.47
2022-11-08T13:53:21.528Z,19.51
2022-11-08T13:55:50.076Z,19.55
2022-11-08T13:58:42.260Z,19.60
2022-11-08T14:01:18.204Z,19.67
2022-11-08T14:03:47.836Z,19.71
2022-11-08T14:06:45.625Z,19.73
2022-11-08T14:09:32.244Z,19.75
2022-11-08T14:12:05.888Z,19.77
2022-11-08T14:15:05.369Z,19.74
2022-11-08T14:17:36.788Z,19.75
2022-11-08T14:20:32.893Z,19.73
2022-11-08T14:23:02.378Z,19.73
2022-11-08T14:25:35.326Z,19.75
2022-11-08T14:28:02.020Z,19.72
2022-11-08T14:30:28.581Z,19.68
2022-11-08T14:33:16.079Z,19.64
2022-11-08T14:35:43.571Z,19.62
2022-11-08T14:38:15.234Z,19.59
2022-11-08T14:40:49.384Z,19.59
2022-11-08T14:43:16.444Z,19.55
2022-11-08T14:45:44.443Z,19.52
2022-11-08T14:48:21.323Z,19.48
2022-11-08T14:50:47.872Z,19.47
2022-11-08T14:53:17.893Z,19.45
2022-11-08T14:55:45.665Z,19.43
2022-11-08T14:58:17.850Z,19.39
2022-11-08T15:00:47.839Z,19.34
2022-11-08T15:03:19.274Z,19.30
2022-11-08T15:05:59.151Z,19.30
2022-11-08T15:08:32.660Z,19.30
2022-11-08T15:11:03.329Z,19.27
2022-11-08T15:13:50.441Z,19.25
2022-11-08T15:16:21.517Z,19.25
2022-11-08T15:18:52.333Z,19.24
2022-11-08T15:21:25.914Z,19.25
2022-11-08T15:23:54.616Z,19.26
2022-11-08T15:26:32.175Z,19.25
2022-11-08T15:29:21.138Z,19.22
2022-11-08T15:31:55.644Z,19.21
2022-11-08T15:34:40.717Z,19.19
2022-11-08T15:37:20.981Z,19.16
2022-11-08T15:39:47.694Z,19.15
2022-11-08T15:42:16.403Z,19.12
2022-11-08T15:45:06.031Z,19.09
2022-11-08T15:47:39.811Z,19.10
2022-11-08T15:50:29.653Z,19.08
2022-11-08T15:53:01.112Z,19.07
2022-11-08T15:55:34.404Z,19.04
2022-11-08T15:58:02.824Z,19.01
2022-11-08T16:00:32.049Z,18.99
2022-11-08T16:02:59.045Z,18.96
2022-11-08T16:05:33.644Z,18.93
2022-11-08T16:08:00.800Z,18.92
2022-11-08T16:10:34.751Z,18.87
2022-11-08T16:13:02.933Z,18.85
2022-11-08T16:15:32.534Z,18.83
2022-11-08T16:18:00.827Z,18.82
2022-11-08T16:20:37.831Z,18.80
2022-11-08T16:23:10.592Z,18.80
2022-11-08T16:25:40.625Z,18.75
2022-11-08T16:28:19.086Z,18.73
2022-11-08T16:30:46.962Z,18.70
2022-11-08T16:33:22.092Z,18.66
2022-11-08T16:35:49.403Z,18.63
2022-11-08T16:38:22.177Z,18.60
2022-11-08T16:40:48.667Z,18.57
2022-11-08T16:43:15.152Z,18.53
2022-11-08T16:48:33.649Z,18.44
2022-11-08T16:51:02.621Z,18.40
2022-11-08T16:53:29.580Z,18.38
2022-11-08T16:55:57.207Z,18.35
2022-11-08T16:58:24.269Z,18.33
2022-11-08T17:00:51.680Z,18.30
2022-11-08T17:03:24.496Z,18.28
2022-11-08T17:05:53.897Z,18.24
2022-11-08T17:08:21.359Z,18.20
2022-11-08T17:10:48.488Z,18.16
2022-11-08T17:13:16.863Z,18.13
2022-11-08T17:15:45.246Z,18.13
2022-11-08T17:18:14.287Z,18.11
2022-11-08T17:20:41.660Z,18.08
2022-11-08T17:23:09.298Z,18.06
2022-11-08T17:25:40.170Z,18.03
2022-11-08T17:28:06.718Z,17.99
2022-11-08T17:30:33.179Z,17.98
2022-11-08T17:32:59.686Z,17.95
2022-11-08T17:35:26.866Z,17.95
2022-11-08T17:37:53.644Z,17.94
2022-11-08T17:40:20.444Z,17.93
2022-11-08T17:42:47.015Z,17.93
2022-11-08T17:45:19.448Z,17.93
2022-11-08T17:47:46.088Z,17.93
2022-11-08T17:50:12.840Z,17.92
2022-11-08T17:52:39.544Z,17.93
2022-11-08T17:55:06.720Z,17.94
2022-11-08T17:57:33.377Z,17.95
2022-11-08T17:59:59.979Z,17.96
2022-11-08T18:02:27.370Z,17.97
2022-11-08T18:04:58.283Z,17.98
2022-11-08T18:07:24.816Z,18.00
2022-11-08T18:09:51.639Z,18.00
2022-11-08T18:12:18.121Z,18.01
2022-11-08T18:14:47.659Z,18.01
2022-11-08T18:17:14.157Z,18.03
2022-11-08T18:19:41.099Z,18.03
2022-11-08T18:22:07.555Z,18.05
2022-11-08T18:24:34.826Z,18.06
2022-11-08T18:27:01.320Z,18.06
2022-11-08T18:29:28.263Z,18.04
2022-11-08T18:31:54.723Z,18.03
2022-11-08T18:34:25.754Z,18.04
2022-11-08T18:36:52.295Z,18.02
2022-11-08T18:39:19.975Z,18.01
2022-11-08T18:41:46.706Z,18.00
2022-11-08T18:44:19.140Z,18.00
2022-11-08T18:46:45.646Z,18.01
2022-11-08T18:49:12.205Z,18.00
2022-11-08T18:51:38.687Z,18.00
2022-11-08T18:54:05.181Z,17.97
2022-11-08T18:56:31.666Z,17.97
2022-11-08T18:58:58.190Z,17.96
2022-11-08T19:01:24.796Z,17.97
2022-11-08T19:03:51.484Z,17.96
2022-11-08T19:06:19.371Z,17.95
2022-11-08T19:08:45.881Z,17.95
2022-11-08T19:11:14.870Z,17.94
2022-11-08T19:13:41.765Z,17.93
2022-11-08T19:16:19.268Z,17.91
2022-11-08T19:18:47.014Z,17.89
2022-11-08T19:21:19.156Z,17.86
2022-11-08T19:23:46.516Z,17.85
2022-11-08T19:26:22.040Z,17.84
2022-11-08T19:28:49.622Z,17.82
2022-11-08T19:31:22.279Z,17.82
2022-11-08T19:33:51.248Z,17.85
2022-11-08T19:36:20.716Z,17.87
2022-11-08T19:38:47.208Z,17.89
2022-11-08T19:41:16.377Z,17.90
2022-11-08T19:43:43.531Z,17.90
2022-11-08T19:46:16.448Z,17.91
2022-11-08T19:48:44.893Z,17.92
2022-11-08T19:51:20.384Z,17.95
2022-11-08T19:53:47.388Z,17.98
2022-11-08T19:56:19.528Z,18.00
2022-11-08T19:58:46.881Z,18.04
2022-11-08T20:01:19.397Z,18.05
2022-11-08T20:03:46.615Z,18.08
2022-11-08T20:06:14.879Z,18.12
2022-11-08T20:08:41.422Z,18.14
2022-11-08T20:11:19.553Z,18.15
2022-11-08T20:13:46.657Z,18.18
2022-11-08T20:16:29.150Z,18.19
2022-11-08T20:19:00.112Z,18.22
2022-11-08T20:21:26.580Z,18.24
2022-11-08T20:23:53.283Z,18.29
2022-11-08T20:26:24.639Z,18.31
2022-11-08T20:28:56.171Z,18.33
2022-11-08T20:31:24.605Z,18.40
2022-11-08T20:33:53.120Z,18.45
2022-11-08T20:36:23.304Z,18.53
2022-11-08T20:38:54.009Z,18.58
2022-11-08T20:41:20.530Z,18.67
2022-11-08T20:43:47.213Z,18.71
2022-11-08T20:46:16.562Z,18.76
2022-11-08T20:48:44.243Z,18.80
2022-11-08T20:51:13.404Z,18.83
2022-11-08T20:53:40.504Z,18.86
2022-11-08T20:56:15.997Z,18.89
2022-11-08T20:58:43.629Z,18.89
2022-11-08T21:01:13.275Z,18.93
2022-11-08T21:03:39.960Z,18.93
2022-11-08T21:06:11.112Z,18.94
2022-11-08T21:11:27.253Z,18.98
2022-11-08T21:13:53.742Z,18.97
2022-11-08T21:16:29.768Z,18.96
2022-11-08T21:18:58.313Z,18.96
2022-11-08T21:21:25.352Z,18.95
2022-11-08T21:23:52.031Z,18.94
2022-11-08T21:26:20.641Z,18.93
2022-11-08T21:28:47.510Z,18.92
2022-11-08T21:31:14.817Z,18.90
2022-11-08T21:33:41.656Z,18.88
2022-11-08T21:36:09.868Z,18.85
2022-11-08T21:38:38.195Z,18.80
2022-11-08T21:41:07.810Z,18.76
2022-11-08T21:43:36.567Z,18.72
2022-11-08T21:46:25.569Z,18.68
2022-11-08T21:49:01.570Z,18.66
2022-11-08T21:51:29.545Z,18.62
2022-11-08T21:53:57.521Z,18.60
2022-11-08T21:56:29.518Z,18.59
2022-11-08T21:58:56.455Z,18.56
2022-11-08T22:01:28.834Z,18.52
2022-11-08T22:03:57.218Z,18.50
2022-11-08T22:06:23.971Z,18.47
2022-11-08T22:08:50.455Z,18.44
2022-11-08T22:11:16.920Z,18.39
2022-11-08T22:13:43.400Z,18.38
2022-11-08T22:16:09.989Z,18.37
2022-11-08T22:18:58.652Z,18.34
2022-11-08T22:21:39.582Z,18.31
2022-11-08T22:24:20.633Z,18.25
2022-11-08T22:26:48.657Z,18.22
2022-11-08T22:29:16.221Z,18.19
2022-11-08T22:31:43.127Z,18.16
2022-11-08T22:34:10.286Z,18.14
2022-11-08T22:36:51.667Z,18.14
2022-11-08T22:39:21.235Z,18.13
2022-11-08T22:41:50.142Z,18.11
2022-11-08T22:44:19.513Z,18.08
2022-11-08T22:46:47.435Z,18.07
2022-11-08T22:49:15.904Z,18.06
2022-11-08T22:51:43.206Z,18.04
2022-11-08T22:54:17.924Z,18.01
2022-11-08T22:56:44.512Z,17.99
2022-11-08T22:59:11.047Z,17.96
2022-11-08T23:01:37.543Z,17.92
2022-11-08T23:04:04.357Z,17.93
2022-11-08T23:06:30.992Z,17.90
2022-11-08T23:08:57.646Z,17.86
2022-11-08T23:11:42.876Z,17.84
2022-11-08T23:14:35.430Z,17.82
2022-11-08T23:17:03.177Z,17.77
2022-11-08T23:19:48.402Z,17.75
2022-11-08T23:22:35.597Z,17.74
2022-11-08T23:25:02.900Z,17.72
2022-11-08T23:27:47.947Z,17.70
2022-11-08T23:30:34.899Z,17.68
2022-11-08T23:33:01.472Z,17.66
2022-11-08T23:35:29.474Z,17.65
2022-11-08T23:37:56.027Z,17.66
2022-11-08T23:40:41.158Z,17.67
2022-11-08T23:43:34.926Z,17.67
2022-11-08T23:46:07.391Z,17.66
2022-11-08T23:48:34.669Z,17.66
2022-11-08T23:51:01.141Z,17.66
2022-11-08T23:53:28.038Z,17.63
2022-11-08T23:55:56.291Z,17.62
2022-11-08T23:58:23.496Z,17.62
